createdAt,value
2023-05-01T00:00:39.607Z,100881.03
2023-05-01T00:03:41.328Z,100876.28
2023-05-01T00:06:42.981Z,100866.81
2023-05-01T00:09:44.634Z,100876.97
2023-05-01T00:12:46.183Z,100863.03
2023-05-01T00:15:48.881Z,100865.28
2023-05-01T00:18:50.538Z,100874.50
2023-05-01T00:21:53.151Z,100855.66
2023-05-01T00:24:54.745Z,100862.38
2023-05-01T00:27:56.289Z,100860.56
2023-05-01T00:30:57.926Z,100860.72
2023-05-01T00:33:59.534Z,100869.63
2023-05-01T00:37:02.352Z,100854.69
2023-05-01T00:40:05.294Z,100862.75
2023-05-01T00:43:06.960Z,100859.56
2023-05-01T00:46:09.098Z,100874.66
2023-05-01T00:49:10.920Z,100869.34
2023-05-01T00:52:13.242Z,100873.41
2023-05-01T00:55:14.850Z,100868.78
2023-05-01T00:58:18.674Z,100867.94
2023-05-01T01:01:21.517Z,100875.50
2023-05-01T01:04:23.313Z,100863.38
2023-05-01T01:07:36.923Z,100870.59
2023-05-01T01:11:03.998Z,100859.31
2023-05-01T01:14:10.774Z,100870.47
2023-05-01T01:17:30.060Z,100864.22
2023-05-01T01:20:43.175Z,100858.09
2023-05-01T01:24:06.264Z,100878.53
2023-05-01T01:27:25.972Z,100880.47
2023-05-01T01:30:50.751Z,100860.72
2023-05-01T01:34:01.991Z,100865.03
2023-05-01T01:37:20.369Z,100856.53
2023-05-01T01:40:35.195Z,100863.31
2023-05-01T01:43:41.078Z,100871.69
2023-05-01T01:46:43.185Z,100868.47
2023-05-01T01:49:49.875Z,100863.31
2023-05-01T01:52:54.238Z,100872.66
2023-05-01T01:55:58.266Z,100862.63
2023-05-01T01:59:01.908Z,100863.88
2023-05-01T02:02:05.107Z,100876.13
2023-05-01T02:05:14.771Z,100875.00
2023-05-01T02:08:18.444Z,100879.31
2023-05-01T02:11:22.235Z,100849.50
2023-05-01T02:14:26.961Z,100869.28
2023-05-01T02:17:30.041Z,100872.84
2023-05-01T02:20:33.459Z,100880.28
2023-05-01T02:23:35.653Z,100871.47
2023-05-01T02:26:42.683Z,100873.56
2023-05-01T02:29:44.456Z,100876.31
2023-05-01T02:32:46.441Z,100869.63
2023-05-01T02:35:48.154Z,100861.69
2023-05-01T02:38:51.166Z,100854.00
2023-05-01T02:41:55.824Z,100864.16
2023-05-01T02:45:00.147Z,100873.09
2023-05-01T02:48:04.022Z,100873.88
2023-05-01T02:51:07.197Z,100874.72
2023-05-01T02:54:09.569Z,100874.03
2023-05-01T02:57:12.386Z,100876.91
2023-05-01T03:00:14.330Z,100881.78
2023-05-01T03:03:16.627Z,100862.91
2023-05-01T03:06:19.514Z,100876.56
2023-05-01T03:09:22.150Z,100869.38
2023-05-01T03:12:24.029Z,100874.91
2023-05-01T03:15:25.609Z,100882.38
2023-05-01T03:18:27.384Z,100879.22
2023-05-01T03:21:29.050Z,100872.97
2023-05-01T03:24:30.610Z,100887.44
2023-05-01T03:27:32.164Z,100884.25
2023-05-01T03:30:35.023Z,100888.28
2023-05-01T03:33:37.056Z,100888.03
2023-05-01T03:36:38.613Z,100881.88
2023-05-01T03:39:40.381Z,100883.25
2023-05-01T03:42:41.957Z,100879.41
2023-05-01T03:45:44.892Z,100892.34
2023-05-01T03:48:46.741Z,100887.91
2023-05-01T03:51:48.648Z,100887.75
2023-05-01T03:54:50.343Z,100887.91
2023-05-01T03:57:52.685Z,100885.38
2023-05-01T04:00:57.029Z,100888.34
2023-05-01T04:03:58.788Z,100895.03
2023-05-01T04:07:00.440Z,100896.84
2023-05-01T04:10:02.505Z,100889.63
2023-05-01T04:13:04.916Z,100895.59
2023-05-01T04:16:07.074Z,100869.25
2023-05-01T04:19:09.273Z,100877.63
2023-05-01T04:22:10.911Z,100892.66
2023-05-01T04:25:12.489Z,100884.16
2023-05-01T04:28:14.048Z,100897.41
2023-05-01T04:31:16.053Z,100900.88
2023-05-01T04:34:17.872Z,100898.53
2023-05-01T04:37:19.506Z,100897.03
2023-05-01T04:40:21.109Z,100888.38
2023-05-01T04:43:22.733Z,100901.09
2023-05-01T04:46:24.367Z,100901.81
2023-05-01T04:49:26.182Z,100901.84
2023-05-01T04:52:27.759Z,100906.13
2023-05-01T04:55:31.145Z,100909.66
2023-05-01T04:58:32.870Z,100900.19
2023-05-01T05:01:34.544Z,100918.06
2023-05-01T05:04:36.655Z,100913.88
2023-05-01T05:07:38.282Z,100913.50
2023-05-01T05:10:39.889Z,100906.41
2023-05-01T05:13:41.474Z,100907.38
2023-05-01T05:16:43.254Z,100912.25
2023-05-01T05:19:44.865Z,100908.75
2023-05-01T05:22:46.381Z,100895.22
2023-05-01T05:25:47.966Z,100900.91
2023-05-01T05:28:50.908Z,100909.31
2023-05-01T05:31:52.490Z,100909.59
2023-05-01T05:34:54.126Z,100922.25
2023-05-01T05:37:55.695Z,100921.50
2023-05-01T05:40:59.444Z,100898.09
2023-05-01T05:44:01.373Z,100926.94
2023-05-01T05:47:02.997Z,100903.25
2023-05-01T05:50:06.503Z,100920.19
2023-05-01T05:53:09.129Z,100932.41
2023-05-01T05:56:11.155Z,100922.28
2023-05-01T05:59:12.809Z,100923.28
2023-05-01T06:02:14.481Z,100929.91
2023-05-01T06:05:16.220Z,100926.97
2023-05-01T06:08:17.840Z,100918.53
2023-05-01T06:11:21.567Z,100931.19
2023-05-01T06:14:23.175Z,100936.03
2023-05-01T06:17:25.473Z,100922.06
2023-05-01T06:20:27.387Z,100942.44
2023-05-01T06:23:29.461Z,100936.78
2023-05-01T06:26:31.371Z,100935.19
2023-05-01T06:29:32.946Z,100939.25
2023-05-01T06:32:34.641Z,100925.97
2023-05-01T06:35:39.196Z,100942.34
2023-05-01T06:38:42.228Z,100941.44
2023-05-01T06:41:46.516Z,100938.13
2023-05-01T06:44:48.108Z,100936.16
2023-05-01T06:47:49.709Z,100929.75
2023-05-01T06:50:51.485Z,100946.41
2023-05-01T06:53:53.174Z,100948.78
2023-05-01T06:56:54.806Z,100946.38
2023-05-01T06:59:56.707Z,100922.97
2023-05-01T07:02:58.641Z,100948.66
2023-05-01T07:06:00.333Z,100941.47
2023-05-01T07:09:02.081Z,100940.47
2023-05-01T07:12:03.878Z,100934.97
2023-05-01T07:15:06.022Z,100946.63
2023-05-01T07:18:07.721Z,100932.66
2023-05-01T07:21:11.970Z,100941.81
2023-05-01T07:24:13.652Z,100937.75
2023-05-01T07:27:15.297Z,100936.44
2023-05-01T07:30:16.965Z,100926.19
2023-05-01T07:33:18.709Z,100944.53
2023-05-01T07:36:22.201Z,100939.88
2023-05-01T07:39:23.799Z,100944.22
2023-05-01T07:42:29.614Z,100946.16
2023-05-01T07:45:31.437Z,100933.28
2023-05-01T07:48:33.054Z,100951.00
2023-05-01T07:51:34.973Z,100953.00
2023-05-01T07:54:36.824Z,100947.41
2023-05-01T07:57:38.775Z,100936.19
2023-05-01T08:00:40.512Z,100955.34
2023-05-01T08:03:42.296Z,100952.41
2023-05-01T08:06:43.924Z,100961.22
2023-05-01T08:09:46.393Z,100956.31
2023-05-01T08:12:47.963Z,100949.75
2023-05-01T08:15:49.635Z,100951.25
2023-05-01T08:18:51.280Z,100942.31
2023-05-01T08:21:53.179Z,100961.22
2023-05-01T08:24:55.427Z,100947.75
2023-05-01T08:27:57.099Z,100953.78
2023-05-01T08:30:58.687Z,100950.41
2023-05-01T08:34:00.336Z,100945.53
2023-05-01T08:37:02.165Z,100945.75
2023-05-01T08:40:08.463Z,100938.19
2023-05-01T08:43:10.605Z,100951.34
2023-05-01T08:46:16.231Z,100942.38
2023-05-01T08:49:18.687Z,100947.22
2023-05-01T08:52:22.255Z,100942.72
2023-05-01T08:55:25.797Z,100942.84
2023-05-01T08:58:28.146Z,100938.28
2023-05-01T09:01:32.757Z,100939.97
2023-05-01T09:04:39.024Z,100938.16
2023-05-01T09:07:41.201Z,100930.63
2023-05-01T09:10:46.441Z,100935.75
2023-05-01T09:13:48.282Z,100933.69
2023-05-01T09:16:50.061Z,100924.75
2023-05-01T09:19:52.462Z,100939.31
2023-05-01T09:22:56.786Z,100920.44
2023-05-01T09:25:59.630Z,100931.53
2023-05-01T09:29:02.590Z,100917.72
2023-05-01T09:32:20.874Z,100910.28
2023-05-01T09:35:22.707Z,100912.19
2023-05-01T09:38:26.070Z,100916.53
2023-05-01T09:41:28.527Z,100910.72
2023-05-01T09:44:30.227Z,100900.34
2023-05-01T09:47:34.102Z,100893.09
2023-05-01T09:50:35.762Z,100899.41
2023-05-01T09:53:38.941Z,100895.88
2023-05-01T09:56:48.014Z,100880.50
2023-05-01T10:00:08.411Z,100890.97
2023-05-01T10:03:14.897Z,100881.22
2023-05-01T10:06:29.078Z,100896.44
2023-05-01T10:09:32.372Z,100874.81
2023-05-01T10:12:33.977Z,100870.06
2023-05-01T10:15:38.742Z,100882.06
2023-05-01T10:18:40.336Z,100881.69
2023-05-01T10:21:42.556Z,100880.06
2023-05-01T10:24:46.239Z,100870.41
2023-05-01T10:27:49.764Z,100864.44
2023-05-01T10:30:52.723Z,100877.22
2023-05-01T10:33:55.908Z,100869.94
2023-05-01T10:37:01.074Z,100864.00
2023-05-01T10:40:41.253Z,100872.47
2023-05-01T10:43:43.749Z,100856.13
2023-05-01T10:46:46.535Z,100864.38
2023-05-01T10:50:04.509Z,100860.94
2023-05-01T10:53:12.393Z,100861.19
2023-05-01T10:56:27.166Z,100864.06
2023-05-01T11:00:01.829Z,100860.59
2023-05-01T11:03:21.643Z,100858.47
2023-05-01T11:06:24.251Z,100856.22
2023-05-01T11:09:46.232Z,100838.09
2023-05-01T11:12:53.590Z,100844.88
2023-05-01T11:15:55.468Z,100835.84
2023-05-01T11:18:57.460Z,100846.22
2023-05-01T11:22:00.606Z,100842.91
2023-05-01T11:25:05.585Z,100840.56
2023-05-01T11:28:07.228Z,100841.25
2023-05-01T11:31:11.580Z,100831.97
2023-05-01T11:34:13.444Z,100823.03
2023-05-01T11:37:15.113Z,100809.69
2023-05-01T11:40:20.210Z,100828.69
2023-05-01T11:43:21.941Z,100818.22
2023-05-01T11:46:33.802Z,100809.16
2023-05-01T11:49:35.922Z,100810.53
2023-05-01T11:52:45.600Z,100817.44
2023-05-01T11:55:47.202Z,100802.47
2023-05-01T11:58:49.100Z,100795.13
2023-05-01T12:01:53.655Z,100794.59
2023-05-01T12:04:55.673Z,100789.47
2023-05-01T12:08:20.703Z,100798.84
2023-05-01T12:11:24.057Z,100792.59
2023-05-01T12:14:25.830Z,100784.47
2023-05-01T12:17:28.483Z,100790.69
2023-05-01T12:20:44.070Z,100792.41
2023-05-01T12:23:46.264Z,100784.03
2023-05-01T12:27:00.788Z,100754.44
2023-05-01T12:30:02.430Z,100752.44
2023-05-01T12:33:15.753Z,100759.28
2023-05-01T12:36:18.016Z,100757.06
2023-05-01T12:39:20.535Z,100746.34
2023-05-01T12:42:22.152Z,100753.03
2023-05-01T12:45:24.942Z,100750.28
2023-05-01T12:48:27.379Z,100733.06
2023-05-01T12:51:28.955Z,100731.31
2023-05-01T12:54:32.402Z,100732.53
2023-05-01T12:57:34.095Z,100734.75
2023-05-01T13:00:46.454Z,100728.91
2023-05-01T13:03:48.161Z,100740.91
2023-05-01T13:06:52.631Z,100733.78
2023-05-01T13:09:59.423Z,100734.44
2023-05-01T13:13:01.955Z,100724.13
2023-05-01T13:16:05.476Z,100719.13
2023-05-01T13:19:07.606Z,100703.41
2023-05-01T13:22:09.211Z,100707.16
2023-05-01T13:25:20.421Z,100709.28
2023-05-01T13:28:22.075Z,100692.66
2023-05-01T13:31:23.730Z,100686.88
2023-05-01T13:34:30.071Z,100693.66
2023-05-01T13:37:32.467Z,100699.19
2023-05-01T13:40:34.359Z,100691.88
2023-05-01T13:43:36.054Z,100698.41
2023-05-01T13:46:42.164Z,100680.66
2023-05-01T13:49:44.351Z,100680.56
2023-05-01T13:52:46.338Z,100680.34
2023-05-01T13:55:48.010Z,100676.28
2023-05-01T13:58:50.731Z,100661.28
2023-05-01T14:01:52.533Z,100661.97
2023-05-01T14:04:55.039Z,100662.91
2023-05-01T14:07:58.457Z,100656.47
2023-05-01T14:11:00.195Z,100653.88
2023-05-01T14:14:01.881Z,100659.41
2023-05-01T14:17:03.627Z,100670.03
2023-05-01T14:20:06.742Z,100663.34
2023-05-01T14:23:08.624Z,100662.81
2023-05-01T14:26:11.922Z,100650.69
2023-05-01T14:29:23.035Z,100637.19
2023-05-01T14:32:24.970Z,100636.78
2023-05-01T14:35:26.618Z,100652.72
2023-05-01T14:38:35.312Z,100617.59
2023-05-01T14:41:41.153Z,100623.38
2023-05-01T14:44:43.057Z,100637.97
2023-05-01T14:47:49.174Z,100616.69
2023-05-01T14:50:51.601Z,100625.72
2023-05-01T14:53:53.378Z,100622.69
2023-05-01T14:56:54.955Z,100623.84
2023-05-01T14:59:56.537Z,100611.75
2023-05-01T15:02:59.308Z,100615.34
2023-05-01T15:06:01.515Z,100613.94
2023-05-01T15:09:04.812Z,100620.34
2023-05-01T15:12:07.330Z,100611.97
2023-05-01T15:15:09.624Z,100614.75
2023-05-01T15:18:11.500Z,100615.16
2023-05-01T15:21:13.175Z,100610.31
2023-05-01T15:24:14.699Z,100608.94
2023-05-01T15:27:17.767Z,100612.16
2023-05-01T15:30:19.365Z,100598.41
2023-05-01T15:33:21.221Z,100598.06
2023-05-01T15:36:22.897Z,100592.69
2023-05-01T15:39:24.543Z,100592.91
2023-05-01T15:42:26.280Z,100595.13
2023-05-01T15:45:27.946Z,100596.94
2023-05-01T15:48:29.532Z,100592.41
2023-05-01T15:51:32.520Z,100582.97
2023-05-01T15:54:34.174Z,100592.16
2023-05-01T15:57:35.823Z,100587.31
2023-05-01T16:00:39.767Z,100583.91
2023-05-01T16:03:45.447Z,100582.09
2023-05-01T16:06:47.197Z,100572.25
2023-05-01T16:09:49.209Z,100596.16
2023-05-01T16:12:52.630Z,100591.41
2023-05-01T16:15:54.306Z,100592.13
2023-05-01T16:18:58.180Z,100597.94
2023-05-01T16:22:03.804Z,100588.72
2023-05-01T16:25:06.394Z,100594.00
2023-05-01T16:28:08.074Z,100592.03
2023-05-01T16:31:23.351Z,100587.69
2023-05-01T16:34:28.051Z,100583.41
2023-05-01T16:37:29.658Z,100560.72
2023-05-01T16:40:31.389Z,100587.38
2023-05-01T16:43:32.954Z,100571.91
2023-05-01T16:46:34.627Z,100582.81
2023-05-01T16:49:38.278Z,100588.13
2023-05-01T16:52:40.495Z,100594.22
2023-05-01T16:55:42.197Z,100579.28
2023-05-01T16:58:43.942Z,100575.44
2023-05-01T17:01:46.069Z,100587.75
2023-05-01T17:04:47.728Z,100578.97
2023-05-01T17:07:49.373Z,100586.50
2023-05-01T17:10:50.967Z,100582.19
2023-05-01T17:13:52.656Z,100581.00
2023-05-01T17:16:54.387Z,100582.25
2023-05-01T17:19:56.208Z,100572.63
2023-05-01T17:22:57.904Z,100582.81
2023-05-01T17:25:59.598Z,100571.78
2023-05-01T17:29:03.171Z,100577.53
2023-05-01T17:32:06.498Z,100570.88
2023-05-01T17:35:08.660Z,100558.84
2023-05-01T17:38:10.256Z,100556.84
2023-05-01T17:41:11.864Z,100554.72
2023-05-01T17:44:13.409Z,100557.53
2023-05-01T17:47:15.310Z,100554.56
2023-05-01T17:50:16.864Z,100575.09
2023-05-01T17:53:18.542Z,100560.75
2023-05-01T17:56:20.094Z,100569.31
2023-05-01T17:59:21.840Z,100562.13
2023-05-01T18:02:23.866Z,100577.00
2023-05-01T18:05:25.980Z,100575.75
2023-05-01T18:08:27.604Z,100571.31
2023-05-01T18:11:29.178Z,100578.50
2023-05-01T18:14:30.755Z,100562.03
2023-05-01T18:17:32.410Z,100583.03
2023-05-01T18:20:34.022Z,100583.88
2023-05-01T18:23:36.562Z,100581.06
2023-05-01T18:26:38.192Z,100582.56
2023-05-01T18:29:39.768Z,100580.44
2023-05-01T18:32:48.355Z,100582.59
2023-05-01T18:35:50.567Z,100593.44
2023-05-01T18:38:52.358Z,100596.22
2023-05-01T18:41:54.509Z,100583.44
2023-05-01T18:44:57.013Z,100577.28
2023-05-01T18:48:00.612Z,100594.56
2023-05-01T18:51:08.830Z,100595.03
2023-05-01T18:54:11.086Z,100604.47
2023-05-01T18:57:12.668Z,100609.09
2023-05-01T19:00:16.634Z,100602.09
2023-05-01T19:03:19.591Z,100597.59
2023-05-01T19:06:21.226Z,100596.88
2023-05-01T19:09:22.863Z,100610.34
2023-05-01T19:12:24.450Z,100598.72
2023-05-01T19:15:30.185Z,100603.97
2023-05-01T19:18:33.269Z,100590.66
2023-05-01T19:21:34.843Z,100601.78
2023-05-01T19:24:36.473Z,100594.97
2023-05-01T19:27:38.109Z,100597.75
2023-05-01T19:30:41.268Z,100611.22
2023-05-01T19:33:42.871Z,100598.81
2023-05-01T19:36:44.469Z,100606.66
2023-05-01T19:39:46.135Z,100608.72
2023-05-01T19:42:47.748Z,100605.53
2023-05-01T19:45:49.482Z,100612.34
2023-05-01T19:48:51.538Z,100617.94
2023-05-01T19:51:54.215Z,100616.56
2023-05-01T19:54:55.809Z,100614.50
2023-05-01T19:57:57.391Z,100624.09
2023-05-01T20:01:02.319Z,100609.41
2023-05-01T20:04:04.215Z,100624.22
2023-05-01T20:07:06.343Z,100627.44
2023-05-01T20:10:09.670Z,100604.41
2023-05-01T20:13:11.488Z,100621.34
2023-05-01T20:16:13.077Z,100621.84
2023-05-01T20:19:16.437Z,100617.59
2023-05-01T20:22:18.088Z,100612.75
2023-05-01T20:25:19.702Z,100627.97
2023-05-01T20:28:21.289Z,100627.75
2023-05-01T20:31:22.895Z,100609.19
2023-05-01T20:34:25.180Z,100626.16
2023-05-01T20:37:26.787Z,100622.50
2023-05-01T20:40:29.314Z,100605.16
2023-05-01T20:43:30.892Z,100597.59
2023-05-01T20:46:32.692Z,100613.72
2023-05-01T20:49:34.774Z,100618.66
2023-05-01T20:52:37.322Z,100630.78
2023-05-01T20:55:38.882Z,100634.69
2023-05-01T20:58:40.492Z,100639.75
2023-05-01T21:01:42.150Z,100635.47
2023-05-01T21:04:43.951Z,100637.53
2023-05-01T21:07:45.593Z,100634.38
2023-05-01T21:10:47.156Z,100643.34
2023-05-01T21:13:48.813Z,100648.41
2023-05-01T21:16:50.608Z,100639.38
2023-05-01T21:19:52.462Z,100640.06
2023-05-01T21:22:54.066Z,100629.97
2023-05-01T21:25:55.728Z,100648.72
2023-05-01T21:28:58.348Z,100642.78
2023-05-01T21:32:05.977Z,100638.63
2023-05-01T21:35:10.047Z,100640.72
2023-05-01T21:38:11.782Z,100634.84
2023-05-01T21:41:15.581Z,100644.91
2023-05-01T21:44:17.628Z,100632.13
2023-05-01T21:47:19.304Z,100638.53
2023-05-01T21:50:21.514Z,100641.47
2023-05-01T21:53:23.195Z,100652.44
2023-05-01T21:56:24.962Z,100663.31
2023-05-01T21:59:37.725Z,100653.47
2023-05-01T22:02:44.335Z,100656.09
2023-05-01T22:05:46.329Z,100655.16
2023-05-01T22:08:47.895Z,100641.41
2023-05-01T22:11:49.742Z,100643.91
2023-05-01T22:14:51.540Z,100658.50
2023-05-01T22:17:53.509Z,100641.84
2023-05-01T22:20:55.376Z,100654.91
2023-05-01T22:23:57.030Z,100664.09
2023-05-01T22:26:58.658Z,100641.69
2023-05-01T22:30:00.544Z,100644.59
2023-05-01T22:33:02.411Z,100640.44
2023-05-01T22:36:06.751Z,100651.31
2023-05-01T22:39:09.089Z,100649.91
2023-05-01T22:42:10.689Z,100654.09
2023-05-01T22:45:12.696Z,100646.16
2023-05-01T22:48:14.345Z,100649.22
2023-05-01T22:51:16.122Z,100643.50
2023-05-01T22:54:17.706Z,100636.97
2023-05-01T22:57:19.282Z,100649.06
2023-05-01T23:00:22.230Z,100647.53
2023-05-01T23:03:24.016Z,100652.25
2023-05-01T23:06:25.911Z,100642.81
2023-05-01T23:09:30.568Z,100639.75
2023-05-01T23:12:33.133Z,100645.59
2023-05-01T23:15:34.701Z,100636.84
2023-05-01T23:18:39.632Z,100641.28
2023-05-01T23:21:41.194Z,100639.31
2023-05-01T23:24:49.803Z,100645.75
2023-05-01T23:27:54.084Z,100649.50
2023-05-01T23:30:56.537Z,100644.75
2023-05-01T23:34:04.307Z,100622.66
2023-05-01T23:37:06.888Z,100643.38
2023-05-01T23:40:09.563Z,100638.66
2023-05-01T23:43:12.230Z,100625.72
2023-05-01T23:46:14.467Z,100639.47
2023-05-01T23:49:16.115Z,100639.88
2023-05-01T23:52:17.708Z,100613.88
2023-05-01T23:55:19.274Z,100635.69
2023-05-01T23:58:20.816Z,100620.94
